createdAt,value
2019-05-01T00:01:00.121Z,5.13
2019-05-01T00:03:40.082Z,5.23
2019-05-01T00:06:09.487Z,5.17
2019-05-01T00:08:38.335Z,5.33
2019-05-01T00:11:07.511Z,5.60
2019-05-01T00:13:36.317Z,4.90
2019-05-01T00:16:05.551Z,5.47
2019-05-01T00:18:34.355Z,5.10
2019-05-01T00:21:03.091Z,5.03
2019-05-01T00:23:31.906Z,5.30
2019-05-01T00:26:00.801Z,5.23
2019-05-01T00:28:29.696Z,5.70
2019-05-01T00:30:58.682Z,5.03
2019-05-01T00:33:27.861Z,4.90
2019-05-01T00:35:56.745Z,5.27
2019-05-01T00:38:25.604Z,4.83
2019-05-01T00:40:54.457Z,5.07
2019-05-01T00:43:23.607Z,5.40
2019-05-01T00:45:52.494Z,5.50
2019-05-01T00:48:21.513Z,5.63
2019-05-01T00:50:50.510Z,5.87
2019-05-01T00:53:19.415Z,5.70
2019-05-01T00:56:06.265Z,5.77
2019-05-01T00:58:50.011Z,5.47
2019-05-01T01:01:40.625Z,5.53
2019-05-01T01:04:11.492Z,5.60
2019-05-01T01:06:40.473Z,5.20
2019-05-01T01:09:12.032Z,5.40
2019-05-01T01:11:40.735Z,5.63
2019-05-01T01:14:09.873Z,5.37
2019-05-01T01:16:38.671Z,6.20
2019-05-01T01:19:07.490Z,5.50
2019-05-01T01:21:36.485Z,6.30
2019-05-01T01:24:05.477Z,6.30
2019-05-01T01:26:34.961Z,5.57
2019-05-01T01:29:03.994Z,5.73
2019-05-01T01:31:32.876Z,5.53
2019-05-01T01:34:01.957Z,6.03
2019-05-01T01:36:30.952Z,6.43
2019-05-01T01:39:01.253Z,5.80
2019-05-01T01:41:30.048Z,5.50
2019-05-01T01:44:16.224Z,6.00
2019-05-01T01:46:45.461Z,5.70
2019-05-01T01:49:14.566Z,5.90
2019-05-01T01:51:43.719Z,6.13
2019-05-01T01:54:12.781Z,5.73
2019-05-01T01:56:41.668Z,5.93
2019-05-01T01:59:10.770Z,6.13
2019-05-01T02:02:02.144Z,6.60
2019-05-01T02:04:47.726Z,6.03
2019-05-01T02:07:16.975Z,6.77
2019-05-01T02:09:45.867Z,5.63
2019-05-01T02:12:14.702Z,6.33
2019-05-01T02:14:43.540Z,6.03
2019-05-01T02:17:12.380Z,5.97
2019-05-01T02:19:41.203Z,6.47
2019-05-01T02:22:10.392Z,6.30
2019-05-01T02:24:39.200Z,5.97
2019-05-01T02:27:12.672Z,6.13
2019-05-01T02:29:46.908Z,7.03
2019-05-01T02:32:16.033Z,5.73
2019-05-01T02:34:45.323Z,6.53
2019-05-01T02:37:15.986Z,5.93
2019-05-01T02:39:44.848Z,5.80
2019-05-01T02:42:15.031Z,6.43
2019-05-01T02:44:48.083Z,6.03
2019-05-01T02:47:22.217Z,5.97
2019-05-01T02:49:58.832Z,6.43
2019-05-01T02:52:30.954Z,7.10
2019-05-01T02:55:03.463Z,5.93
2019-05-01T02:57:32.551Z,5.80
2019-05-01T03:00:01.677Z,6.80
2019-05-01T03:02:31.362Z,6.70
2019-05-01T03:05:00.985Z,5.67
2019-05-01T03:07:33.029Z,7.00
2019-05-01T03:10:02.336Z,6.93
2019-05-01T03:12:31.725Z,5.97
2019-05-01T03:15:02.783Z,6.30
2019-05-01T03:17:53.264Z,6.50
2019-05-01T03:20:47.264Z,6.13
2019-05-01T03:23:23.322Z,5.47
2019-05-01T03:25:52.291Z,5.97
2019-05-01T03:28:21.372Z,6.20
2019-05-01T03:30:51.440Z,6.00
2019-05-01T03:33:20.510Z,5.80
2019-05-01T03:35:49.589Z,6.37
2019-05-01T03:38:18.829Z,6.27
2019-05-01T03:40:48.126Z,6.27
2019-05-01T03:43:16.989Z,6.77
2019-05-01T03:45:46.635Z,6.50
2019-05-01T03:48:15.516Z,6.93
2019-05-01T03:50:46.960Z,6.87
2019-05-01T03:53:16.320Z,6.37
2019-05-01T03:55:45.487Z,6.80
2019-05-01T03:58:14.619Z,6.53
2019-05-01T04:00:51.934Z,6.37
2019-05-01T04:03:25.409Z,6.67
2019-05-01T04:05:54.751Z,6.37
2019-05-01T04:08:25.374Z,6.43
2019-05-01T04:10:55.189Z,6.93
2019-05-01T04:13:24.452Z,6.53
2019-05-01T04:15:54.144Z,6.17
2019-05-01T04:18:23.248Z,6.27
2019-05-01T04:20:52.091Z,7.30
2019-05-01T04:23:21.375Z,7.40
2019-05-01T04:25:50.871Z,7.20
2019-05-01T04:28:47.691Z,6.27
2019-05-01T04:31:41.390Z,6.60
2019-05-01T04:34:18.942Z,7.10
2019-05-01T04:36:50.808Z,7.60
2019-05-01T04:39:19.821Z,6.37
2019-05-01T04:41:49.991Z,6.83
2019-05-01T04:44:19.045Z,7.07
2019-05-01T04:46:47.973Z,6.93
2019-05-01T04:49:18.136Z,6.70
2019-05-01T04:51:48.693Z,7.40
2019-05-01T04:54:17.577Z,7.30
2019-05-01T04:56:47.071Z,7.23
2019-05-01T04:59:16.334Z,7.17
2019-05-01T05:02:00.261Z,7.93
2019-05-01T05:04:30.168Z,7.43
2019-05-01T05:06:59.346Z,7.63
2019-05-01T05:09:42.999Z,6.80
2019-05-01T05:12:36.443Z,7.17
2019-05-01T05:15:25.882Z,7.57
2019-05-01T05:17:54.708Z,7.73
2019-05-01T05:20:23.594Z,7.40
2019-05-01T05:22:52.449Z,7.27
2019-05-01T05:25:21.550Z,7.27
2019-05-01T05:27:50.777Z,7.63
2019-05-01T05:30:19.941Z,6.20
2019-05-01T05:32:49.725Z,7.10
2019-05-01T05:35:20.280Z,6.83
2019-05-01T05:38:08.905Z,7.30
2019-05-01T05:40:37.883Z,6.77
2019-05-01T05:43:06.796Z,7.87
2019-05-01T05:45:36.047Z,7.00
2019-05-01T05:48:05.021Z,6.47
2019-05-01T05:50:39.709Z,7.00
2019-05-01T05:53:10.627Z,6.27
2019-05-01T05:55:44.024Z,6.83
2019-05-01T06:01:29.392Z,6.13
2019-05-01T06:04:22.919Z,6.83
2019-05-01T06:07:05.402Z,6.23
2019-05-01T06:09:57.272Z,6.97
2019-05-01T06:12:37.311Z,7.00
2019-05-01T06:15:23.998Z,7.07
2019-05-01T06:18:05.883Z,7.23
2019-05-01T06:26:37.226Z,6.70
2019-05-01T06:29:08.071Z,6.50
2019-05-01T06:31:39.799Z,6.53
2019-05-01T06:39:33.474Z,6.60
2019-05-01T06:42:04.273Z,6.50
2019-05-01T06:44:44.053Z,6.67
2019-05-01T06:47:43.131Z,7.37
2019-05-01T06:50:18.145Z,7.30
2019-05-01T06:52:47.212Z,6.27
2019-05-01T06:55:16.023Z,6.90
2019-05-01T06:57:45.642Z,6.93
2019-05-01T07:00:17.777Z,6.77
2019-05-01T07:02:47.998Z,6.70
2019-05-01T07:05:16.917Z,7.17
2019-05-01T07:07:48.147Z,7.80
2019-05-01T07:10:29.484Z,7.40
2019-05-01T07:12:48.038Z,7.90
2019-05-01T07:15:17.398Z,8.07
2019-05-01T07:17:47.824Z,10.17
2019-05-01T07:20:25.596Z,8.10
2019-05-01T07:22:54.918Z,9.63
2019-05-01T07:25:23.975Z,10.07
2019-05-01T07:27:53.860Z,8.93
2019-05-01T07:30:42.764Z,9.40
2019-05-01T07:33:16.505Z,10.70
2019-05-01T07:35:43.299Z,10.80
2019-05-01T07:38:12.174Z,13.03
2019-05-01T07:40:41.427Z,13.73
2019-05-01T07:43:24.018Z,14.70
2019-05-01T07:46:13.827Z,13.67
2019-05-01T07:48:44.248Z,13.87
2019-05-01T07:51:14.099Z,13.30
2019-05-01T07:53:43.348Z,14.47
2019-05-01T07:56:12.377Z,14.67
2019-05-01T07:58:41.896Z,15.57
2019-05-01T08:01:20.163Z,15.00
2019-05-01T08:03:49.026Z,14.57
2019-05-01T08:06:21.784Z,14.17
2019-05-01T08:08:48.896Z,14.80
2019-05-01T08:11:18.105Z,14.57
2019-05-01T08:13:47.578Z,15.10
2019-05-01T08:16:17.265Z,15.93
2019-05-01T08:18:51.217Z,15.50
2019-05-01T08:21:38.568Z,15.03
2019-05-01T08:24:08.786Z,15.73
2019-05-01T08:26:39.621Z,17.53
2019-05-01T08:29:30.461Z,16.43
2019-05-01T08:32:21.370Z,17.13
2019-05-01T08:34:50.449Z,17.20
2019-05-01T08:37:24.674Z,17.57
2019-05-01T08:39:54.149Z,16.63
2019-05-01T08:42:22.883Z,16.40
2019-05-01T08:45:15.464Z,16.83
2019-05-01T08:47:46.137Z,18.43
2019-05-01T08:50:19.916Z,17.50
2019-05-01T08:52:51.261Z,20.90
2019-05-01T08:55:20.292Z,17.83
2019-05-01T08:57:49.488Z,17.13
2019-05-01T09:00:18.564Z,17.93
2019-05-01T09:02:47.558Z,16.50
2019-05-01T09:05:28.120Z,17.17
2019-05-01T09:07:51.325Z,16.83
2019-05-01T09:10:21.710Z,17.03
2019-05-01T09:12:51.783Z,17.10
2019-05-01T09:15:21.089Z,18.23
2019-05-01T09:17:50.168Z,18.00
2019-05-01T09:20:21.182Z,19.20
2019-05-01T09:22:50.475Z,17.80
2019-05-01T09:25:23.896Z,17.63
2019-05-01T09:28:04.144Z,18.53
2019-05-01T09:30:35.343Z,16.87
2019-05-01T09:33:04.289Z,16.80
2019-05-01T09:35:33.161Z,16.83
2019-05-01T09:38:02.043Z,18.37
2019-05-01T09:40:31.234Z,18.33
2019-05-01T09:43:03.434Z,35.83
2019-05-01T09:45:32.291Z,18.57
2019-05-01T09:48:01.215Z,20.50
2019-05-01T09:50:31.767Z,17.53
2019-05-01T09:53:11.202Z,18.20
2019-05-01T09:55:47.111Z,16.57
2019-05-01T09:58:19.461Z,17.27
2019-05-01T10:00:52.587Z,16.77
2019-05-01T10:03:19.767Z,18.60
2019-05-01T10:05:49.032Z,17.70
2019-05-01T10:08:18.308Z,17.23
2019-05-01T10:10:47.756Z,18.00
2019-05-01T10:13:17.684Z,20.10
2019-05-01T10:15:47.234Z,16.90
2019-05-01T10:18:16.235Z,21.33
2019-05-01T10:21:03.630Z,28.70
2019-05-01T10:23:34.756Z,18.70
2019-05-01T10:26:06.346Z,18.17
2019-05-01T10:28:50.029Z,17.07
2019-05-01T10:31:23.424Z,16.63
2019-05-01T10:33:55.452Z,16.20
2019-05-01T10:36:33.889Z,17.30
2019-05-01T10:39:03.587Z,17.40
2019-05-01T10:41:32.512Z,18.03
2019-05-01T10:44:01.264Z,17.47
2019-05-01T10:46:30.446Z,16.60
2019-05-01T10:48:59.360Z,16.60
2019-05-01T10:51:30.822Z,17.70
2019-05-01T10:53:59.821Z,17.07
2019-05-01T10:56:29.121Z,16.50
2019-05-01T10:58:57.970Z,17.23
2019-05-01T11:01:45.965Z,18.93
2019-05-01T11:04:15.129Z,17.20
2019-05-01T11:06:44.151Z,17.47
2019-05-01T11:09:14.152Z,17.17
2019-05-01T11:11:43.123Z,17.63
2019-05-01T11:14:12.051Z,16.83
2019-05-01T11:16:40.975Z,18.23
2019-05-01T11:19:09.846Z,16.57
2019-05-01T11:21:38.814Z,16.23
2019-05-01T11:24:07.746Z,17.10
2019-05-01T11:26:36.900Z,17.20
2019-05-01T11:29:09.087Z,16.17
2019-05-01T11:31:45.828Z,17.13
2019-05-01T11:34:52.123Z,18.33
2019-05-01T11:37:42.286Z,17.23
2019-05-01T11:40:16.352Z,16.13
2019-05-01T11:42:45.330Z,15.97
2019-05-01T11:45:14.249Z,15.37
2019-05-01T11:47:43.222Z,14.97
2019-05-01T11:50:12.242Z,15.37
2019-05-01T11:52:41.042Z,13.83
2019-05-01T11:55:10.088Z,12.87
2019-05-01T11:57:39.076Z,13.40
2019-05-01T12:00:10.208Z,13.47
2019-05-01T12:02:39.140Z,13.10
2019-05-01T12:05:08.010Z,13.57
2019-05-01T12:07:37.923Z,12.50
2019-05-01T12:12:52.782Z,11.93
2019-05-01T12:15:21.720Z,12.60
2019-05-01T12:17:52.797Z,12.30
2019-05-01T12:20:22.749Z,11.47
2019-05-01T12:22:52.049Z,11.63
2019-05-01T12:25:21.028Z,11.33
2019-05-01T12:27:50.222Z,10.83
2019-05-01T12:30:19.184Z,12.00
2019-05-01T12:32:48.175Z,10.67
2019-05-01T12:35:17.072Z,10.63
2019-05-01T12:37:45.960Z,11.07
2019-05-01T12:40:17.388Z,11.20
2019-05-01T12:42:46.314Z,11.43
2019-05-01T12:45:15.773Z,11.50
2019-05-01T12:47:53.165Z,10.63
2019-05-01T12:50:22.218Z,10.93
2019-05-01T12:53:10.034Z,10.00
2019-05-01T12:55:51.345Z,10.40
2019-05-01T12:58:21.242Z,10.80
2019-05-01T13:00:52.428Z,10.37
2019-05-01T13:03:21.578Z,11.30
2019-05-01T13:05:50.475Z,10.07
2019-05-01T13:08:19.408Z,10.10
2019-05-01T13:10:48.937Z,10.13
2019-05-01T13:13:17.969Z,10.73
2019-05-01T13:15:46.895Z,10.90
2019-05-01T13:18:15.877Z,10.27
2019-05-01T13:20:44.880Z,10.73
2019-05-01T13:23:13.738Z,10.40
2019-05-01T13:25:43.075Z,11.27
2019-05-01T13:28:42.839Z,11.70
2019-05-01T13:31:34.990Z,10.53
2019-05-01T13:34:04.245Z,10.13
2019-05-01T13:36:33.162Z,12.03
2019-05-01T13:39:02.234Z,11.87
2019-05-01T13:41:31.066Z,11.67
2019-05-01T13:43:59.881Z,10.93
2019-05-01T13:46:28.666Z,11.30
2019-05-01T13:48:57.500Z,11.17
2019-05-01T13:51:26.313Z,10.60
2019-05-01T13:53:56.328Z,10.67
2019-05-01T13:56:25.151Z,11.10
2019-05-01T13:58:53.867Z,11.00
2019-05-01T14:01:23.136Z,11.43
2019-05-01T14:03:51.995Z,10.87
2019-05-01T14:06:20.986Z,11.83
2019-05-01T14:08:49.944Z,11.37
2019-05-01T14:11:18.770Z,12.53
2019-05-01T14:13:47.967Z,11.83
2019-05-01T14:16:16.824Z,11.97
2019-05-01T14:18:45.894Z,10.77
2019-05-01T14:21:22.398Z,10.87
2019-05-01T14:24:10.996Z,10.83
2019-05-01T14:26:39.856Z,11.47
2019-05-01T14:29:08.681Z,10.83
2019-05-01T14:31:37.637Z,12.20
2019-05-01T14:34:07.569Z,11.63
2019-05-01T14:36:36.808Z,11.93
2019-05-01T14:39:09.243Z,11.67
2019-05-01T14:41:38.264Z,11.37
2019-05-01T14:44:08.333Z,11.10
2019-05-01T14:46:37.259Z,10.63
2019-05-01T14:49:06.427Z,9.83
2019-05-01T14:51:35.447Z,10.50
2019-05-01T14:54:05.586Z,10.30
2019-05-01T14:56:34.513Z,11.13
2019-05-01T14:59:03.714Z,12.10
2019-05-01T15:01:32.545Z,11.30
2019-05-01T15:04:01.552Z,10.60
2019-05-01T15:06:30.508Z,10.63
2019-05-01T15:08:59.717Z,9.60
2019-05-01T15:11:28.572Z,11.03
2019-05-01T15:14:20.014Z,10.30
2019-05-01T15:16:56.410Z,10.47
2019-05-01T15:19:27.610Z,11.57
2019-05-01T15:21:56.744Z,11.07
2019-05-01T15:24:28.813Z,9.37
2019-05-01T15:26:57.730Z,9.83
2019-05-01T15:29:26.607Z,10.90
2019-05-01T15:31:55.790Z,10.17
2019-05-01T15:34:24.614Z,9.80
2019-05-01T15:36:53.832Z,10.10
2019-05-01T15:39:44.577Z,9.90
2019-05-01T15:42:34.259Z,9.70
2019-05-01T15:45:03.275Z,10.20
2019-05-01T15:47:41.100Z,9.73
2019-05-01T15:50:10.040Z,10.27
2019-05-01T15:52:38.961Z,10.50
2019-05-01T15:55:11.029Z,9.20
2019-05-01T15:57:40.079Z,9.70
2019-05-01T16:00:09.463Z,9.27
2019-05-01T16:02:38.520Z,9.47
2019-05-01T16:05:07.978Z,9.30
2019-05-01T16:07:36.832Z,11.13
2019-05-01T16:10:10.089Z,10.70
2019-05-01T16:12:44.939Z,9.97
2019-05-01T16:15:33.263Z,9.87
2019-05-01T16:18:02.568Z,10.03
2019-05-01T16:20:31.482Z,10.57
2019-05-01T16:23:00.463Z,9.57
2019-05-01T16:25:29.347Z,17.07
2019-05-01T16:27:59.924Z,10.17
2019-05-01T16:30:28.969Z,9.10
2019-05-01T16:32:57.890Z,9.57
2019-05-01T16:35:26.759Z,10.07
2019-05-01T16:37:58.703Z,9.93
2019-05-01T16:40:39.327Z,10.10
2019-05-01T16:43:10.408Z,9.90
2019-05-01T16:45:43.451Z,10.43
2019-05-01T16:48:13.887Z,9.90
2019-05-01T16:50:42.843Z,10.03
2019-05-01T16:53:16.297Z,9.50
2019-05-01T16:55:45.506Z,10.93
2019-05-01T16:58:15.203Z,10.17
2019-05-01T17:01:06.527Z,10.23
2019-05-01T17:03:42.862Z,10.73
2019-05-01T17:06:19.380Z,10.13
2019-05-01T17:09:20.356Z,12.27
2019-05-01T17:11:49.806Z,9.20
2019-05-01T17:14:18.834Z,9.33
2019-05-01T17:16:47.789Z,10.17
2019-05-01T17:19:17.166Z,9.80
2019-05-01T17:21:46.376Z,8.90
2019-05-01T17:24:15.573Z,9.57
2019-05-01T17:26:50.510Z,9.50
2019-05-01T17:29:19.744Z,9.20
2019-05-01T17:31:51.664Z,8.93
2019-05-01T17:34:25.730Z,8.97
2019-05-01T17:36:55.073Z,10.47
2019-05-01T17:39:28.232Z,9.83
2019-05-01T17:41:57.572Z,10.27
2019-05-01T17:44:27.847Z,10.50
2019-05-01T17:46:56.843Z,9.67
2019-05-01T17:49:25.847Z,10.53
2019-05-01T17:51:54.715Z,11.43
2019-05-01T17:54:24.025Z,11.73
2019-05-01T17:56:55.732Z,12.53
2019-05-01T17:59:23.846Z,11.53
2019-05-01T18:02:11.532Z,12.70
2019-05-01T18:04:51.578Z,13.50
2019-05-01T18:07:21.618Z,13.57
2019-05-01T18:09:51.370Z,13.17
2019-05-01T18:14:56.993Z,13.80
2019-05-01T18:17:26.755Z,13.80
2019-05-01T18:19:57.338Z,14.07
2019-05-01T18:22:48.164Z,16.07
2019-05-01T18:25:33.071Z,14.47
2019-05-01T18:28:31.750Z,15.55
2019-05-01T18:31:00.973Z,14.43
2019-05-01T18:33:29.966Z,15.30
2019-05-01T18:35:59.025Z,14.83
2019-05-01T18:38:36.801Z,14.27
2019-05-01T18:41:28.115Z,14.70
2019-05-01T18:43:57.964Z,14.90
2019-05-01T18:46:27.061Z,16.43
2019-05-01T18:48:57.207Z,15.80
2019-05-01T18:51:26.331Z,15.67
2019-05-01T18:54:01.288Z,15.07
2019-05-01T18:56:30.547Z,14.67
2019-05-01T18:58:59.424Z,16.03
2019-05-01T19:01:28.403Z,15.80
2019-05-01T19:03:57.908Z,16.07
2019-05-01T19:06:40.107Z,15.77
2019-05-01T19:09:14.029Z,16.33
2019-05-01T19:11:36.036Z,16.30
2019-05-01T19:14:05.855Z,16.20
2019-05-01T19:16:34.775Z,16.63
2019-05-01T19:19:06.396Z,15.80
2019-05-01T19:21:41.914Z,16.10
2019-05-01T19:24:16.009Z,15.93
2019-05-01T19:26:45.089Z,16.70
2019-05-01T19:29:17.584Z,15.63
2019-05-01T19:31:46.707Z,16.60
2019-05-01T19:34:15.795Z,17.53
2019-05-01T19:36:45.314Z,17.20
2019-05-01T19:39:16.345Z,16.60
2019-05-01T19:41:49.053Z,16.93
2019-05-01T19:44:18.946Z,16.07
2019-05-01T19:46:47.688Z,17.10
2019-05-01T19:49:24.470Z,17.77
2019-05-01T19:51:55.548Z,17.77
2019-05-01T19:54:27.933Z,18.33
2019-05-01T19:56:54.315Z,17.03
2019-05-01T19:59:23.506Z,20.70
2019-05-01T20:01:52.905Z,18.50
2019-05-01T20:04:22.859Z,18.53
2019-05-01T20:06:53.276Z,20.07
2019-05-01T20:09:25.426Z,20.20
2019-05-01T20:12:01.066Z,18.80
2019-05-01T20:14:30.944Z,21.57
2019-05-01T20:17:00.123Z,20.20
2019-05-01T20:19:30.063Z,20.47
2019-05-01T20:21:59.183Z,21.13
2019-05-01T20:24:28.646Z,20.67
2019-05-01T20:26:58.502Z,20.97
2019-05-01T20:29:28.042Z,21.07
2019-05-01T20:31:59.845Z,19.37
2019-05-01T20:34:29.031Z,20.53
2019-05-01T20:37:00.599Z,22.27
2019-05-01T20:39:30.434Z,20.20
2019-05-01T20:42:00.353Z,20.33
2019-05-01T20:44:29.263Z,21.47
2019-05-01T20:47:02.519Z,22.40
2019-05-01T20:49:29.886Z,23.43
2019-05-01T20:51:58.797Z,22.33
2019-05-01T20:54:27.815Z,21.30
2019-05-01T20:57:03.774Z,22.27
2019-05-01T20:59:35.262Z,20.93
2019-05-01T21:02:07.715Z,21.87
2019-05-01T21:04:45.813Z,22.33
2019-05-01T21:07:29.512Z,22.03
2019-05-01T21:09:59.397Z,22.13
2019-05-01T21:12:28.756Z,23.23
2019-05-01T21:14:57.731Z,22.10
2019-05-01T21:17:26.639Z,21.33
2019-05-01T21:19:55.493Z,20.87
2019-05-01T21:22:26.485Z,23.27
2019-05-01T21:24:57.386Z,22.40
2019-05-01T21:27:26.384Z,22.80
2019-05-01T21:29:55.215Z,22.60
2019-05-01T21:32:27.447Z,22.40
2019-05-01T21:34:56.062Z,22.50
2019-05-01T21:37:25.239Z,22.37
2019-05-01T21:39:54.638Z,22.47
2019-05-01T21:42:25.583Z,21.53
2019-05-01T21:44:54.646Z,22.87
2019-05-01T21:47:23.865Z,22.73
2019-05-01T21:49:53.057Z,20.20
2019-05-01T21:52:26.656Z,22.90
2019-05-01T21:54:55.355Z,22.33
2019-05-01T21:57:24.577Z,21.93
2019-05-01T21:59:55.431Z,22.77
2019-05-01T22:02:26.279Z,22.97
2019-05-01T22:04:55.184Z,23.03
2019-05-01T22:07:27.777Z,22.67
2019-05-01T22:09:54.747Z,21.87
2019-05-01T22:12:23.751Z,21.10
2019-05-01T22:14:56.337Z,23.50
2019-05-01T22:17:39.811Z,22.67
2019-05-01T22:20:10.725Z,22.30
2019-05-01T22:22:48.039Z,22.43
2019-05-01T22:25:23.351Z,22.57
2019-05-01T22:28:20.533Z,22.80
2019-05-01T22:31:21.828Z,21.37
2019-05-01T22:33:49.311Z,21.93
2019-05-01T22:36:18.300Z,21.43
2019-05-01T22:38:47.375Z,22.57
2019-05-01T22:41:16.167Z,21.90
2019-05-01T22:43:45.072Z,22.57
2019-05-01T22:46:20.287Z,21.90
2019-05-01T22:48:49.199Z,22.70
2019-05-01T22:51:22.484Z,22.90
2019-05-01T22:53:54.692Z,22.30
2019-05-01T22:56:25.102Z,21.57
2019-05-01T22:58:54.188Z,24.10
2019-05-01T23:01:24.336Z,22.50
2019-05-01T23:03:55.388Z,22.90
2019-05-01T23:06:24.610Z,22.10
2019-05-01T23:08:53.687Z,21.93
2019-05-01T23:11:24.180Z,23.90
2019-05-01T23:13:53.077Z,23.37
2019-05-01T23:16:28.782Z,23.30
2019-05-01T23:18:54.775Z,22.83
2019-05-01T23:21:23.851Z,22.27
2019-05-01T23:23:56.854Z,22.70
2019-05-01T23:26:23.146Z,21.87
2019-05-01T23:28:51.924Z,21.77
2019-05-01T23:31:20.893Z,21.77
2019-05-01T23:33:50.563Z,23.57
2019-05-01T23:36:23.571Z,21.80
2019-05-01T23:38:50.976Z,22.43
2019-05-01T23:41:24.787Z,23.10
2019-05-01T23:43:50.402Z,23.27
2019-05-01T23:46:19.240Z,22.70
2019-05-01T23:48:48.064Z,22.20
2019-05-01T23:51:17.240Z,21.40
2019-05-01T23:53:48.217Z,22.57
2019-05-01T23:56:16.599Z,22.07
2019-05-01T23:58:45.488Z,22.00
